Camarillo, CA

6:47 PM PST on February 08, 2016 (GMT -0800)
Temple and Ponderosa | | Change Station
CLOSE
Current Station
Personal Weather Station
Location: Camarillo, CA
Elevation: 174 ft
Nearby Weather Stations

Elev 174 ft 34.23 °N, 119.03 °W | Updated 8 seconds ago

Clear
Clear
77.1 °F
Feels Like 77 °F
N
6.0
Wind Variable Wind from ENE
Gusts 15.0 mph

Today
High -- | Low -- °F
--% Chance of Precip.
Yesterday
High -- | Low -- °F
Precip. -- in
Pressure 30.12 in
Visibility 10.0 miles
Clouds Clear
Heat Index 77 °F
Dew Point 26 °F
Humidity 15%
Rainfall 0.00 in
Snow Depth Not available.
6:48 AM 5:32 PM
New Moon, 0% visible
METAR KCMA 090155Z 07013KT 10SM CLR 27/M06 A3010 RMK AO2 PK WND 07026/0101 SLP199 T02671056 $
Pressure 30.12 in
Visibility 10.0 miles
Clouds Clear
Heat Index 77 °F
Dew Point 26 °F
Humidity 15%
Rainfall 0.00 in
Snow Depth Not available.
6:48 AM 5:32 PM
New Moon, 0% visible
METAR KCMA 090155Z 07013KT 10SM CLR 27/M06 A3010 RMK AO2 PK WND 07026/0101 SLP199 T02671056 $

10-Day Weather Forecast

Almanac

Astronomy

Feb. 08, 2016 Rise Set
Actual Time
Civil Twilight
Nautical Twilight
Astronomical Twilight
Moon
Length of Visible Light
Length of Day
Tomorrow will be .
, % of the Moon is Illuminated

Today's Extremes

State Highs State Lows

Community

WunderPhotos

Upload Photos

1,891,527 photos uploaded!

WunderBlog® & News

Nearby

Air Quality

  Air Quality AQ Index Pollutant
Not available.

Snow Depth

Station Depth Elevation

Earthquake Activity

City Distance Mag. Time & Date
Minimum magnitude displayed is 2.5.

Coastal Water Temperatures

Place Temperature

Stations

Nearby Weather Stations

Station Location Temp. Windchill Dew Point Humidity Wind Precip. Elev Updated Type
                   

Watches & Warnings

There are currently no watches in effect.